createdAt,value
2018-11-29T00:00:40.281Z,0.70
2018-11-29T00:03:10.021Z,0.70
2018-11-29T00:05:38.806Z,0.70
2018-11-29T00:08:07.299Z,0.70
2018-11-29T00:10:35.783Z,0.70
2018-11-29T00:13:04.275Z,0.70
2018-11-29T00:15:32.742Z,0.70
2018-11-29T00:18:01.191Z,0.70
2018-11-29T00:20:29.674Z,0.70
2018-11-29T00:22:58.148Z,0.70
2018-11-29T00:25:26.702Z,0.70
2018-11-29T00:27:55.171Z,0.80
2018-11-29T00:30:24.569Z,0.70
2018-11-29T00:32:53.987Z,0.70
2018-11-29T00:35:22.479Z,0.70
2018-11-29T00:37:51.034Z,0.70
2018-11-29T00:40:23.306Z,0.80
2018-11-29T00:42:51.921Z,0.80
2018-11-29T00:45:21.272Z,0.70
2018-11-29T00:47:49.935Z,0.70
2018-11-29T00:50:19.170Z,0.70
2018-11-29T00:52:48.560Z,0.70
2018-11-29T00:55:19.907Z,0.70
2018-11-29T00:57:48.373Z,0.70
2018-11-29T01:00:24.899Z,0.80
2018-11-29T01:02:53.438Z,0.70
2018-11-29T01:05:21.925Z,0.70
2018-11-29T01:07:50.413Z,0.80
2018-11-29T01:10:19.238Z,0.70
2018-11-29T01:12:48.374Z,0.70
2018-11-29T01:15:17.716Z,0.70
2018-11-29T01:17:47.138Z,0.70
2018-11-29T01:20:16.742Z,0.80
2018-11-29T01:22:45.226Z,0.80
2018-11-29T01:25:14.518Z,0.80
2018-11-29T01:27:43.874Z,0.80
2018-11-29T01:30:14.236Z,0.80
2018-11-29T01:32:42.703Z,0.80
2018-11-29T01:35:12.942Z,0.80
2018-11-29T01:37:41.389Z,0.80
2018-11-29T01:40:16.123Z,0.80
2018-11-29T01:42:51.526Z,0.80
2018-11-29T01:45:20.038Z,0.80
2018-11-29T01:47:48.538Z,0.70
2018-11-29T01:50:17.066Z,0.80
2018-11-29T01:52:45.534Z,0.80
2018-11-29T01:55:14.039Z,0.80
2018-11-29T01:57:42.533Z,0.80
2018-11-29T02:00:15.898Z,0.80
2018-11-29T02:02:45.341Z,0.80
2018-11-29T02:05:13.843Z,0.80
2018-11-29T02:07:42.326Z,0.90
2018-11-29T02:10:17.879Z,0.90
2018-11-29T02:12:46.419Z,0.90
2018-11-29T02:15:14.925Z,0.90
2018-11-29T02:17:43.433Z,0.90
2018-11-29T02:20:15.035Z,0.90
2018-11-29T02:22:43.544Z,0.90
2018-11-29T02:25:12.066Z,1.00
2018-11-29T02:27:40.585Z,1.00
2018-11-29T02:30:18.279Z,0.90
2018-11-29T02:32:47.079Z,0.90
2018-11-29T02:35:15.577Z,0.90
2018-11-29T02:37:44.067Z,0.90
2018-11-29T02:40:13.495Z,0.90
2018-11-29T02:42:42.298Z,0.90
2018-11-29T02:45:12.091Z,0.90
2018-11-29T02:47:40.596Z,0.90
2018-11-29T02:50:09.998Z,1.00
2018-11-29T02:52:38.483Z,1.00
2018-11-29T02:55:08.386Z,1.00
2018-11-29T02:57:36.904Z,0.90
2018-11-29T03:00:09.266Z,0.90
2018-11-29T03:02:37.745Z,0.90
2018-11-29T03:05:06.265Z,0.90
2018-11-29T03:07:34.731Z,0.90
2018-11-29T03:10:03.797Z,0.90
2018-11-29T03:12:32.274Z,0.90
2018-11-29T03:15:00.711Z,0.90
2018-11-29T03:17:29.266Z,0.80
2018-11-29T03:19:57.702Z,0.90
2018-11-29T03:22:26.191Z,0.80
2018-11-29T03:24:54.629Z,0.80
2018-11-29T03:27:23.088Z,0.90
2018-11-29T03:29:51.550Z,0.80
2018-11-29T03:32:20.043Z,0.80
2018-11-29T03:34:48.498Z,0.80
2018-11-29T03:37:16.962Z,0.90
2018-11-29T03:39:45.420Z,0.80
2018-11-29T03:42:13.968Z,0.90
2018-11-29T03:44:42.419Z,0.90
2018-11-29T03:47:10.977Z,0.90
2018-11-29T03:49:39.438Z,0.80
2018-11-29T03:52:07.910Z,0.90
2018-11-29T03:54:36.371Z,0.90
2018-11-29T03:57:05.126Z,0.80
2018-11-29T03:59:33.594Z,0.90
2018-11-29T04:02:02.053Z,0.90
2018-11-29T04:04:30.509Z,0.90
2018-11-29T04:06:58.973Z,0.90
2018-11-29T04:09:27.438Z,0.90
2018-11-29T04:11:55.885Z,0.90
2018-11-29T04:14:24.347Z,0.90
2018-11-29T04:16:52.838Z,0.90
2018-11-29T04:19:21.302Z,0.90
2018-11-29T04:21:49.774Z,0.90
2018-11-29T04:24:18.297Z,0.90
2018-11-29T04:26:46.738Z,1.00
2018-11-29T04:29:15.190Z,1.00
2018-11-29T04:31:43.650Z,0.90
2018-11-29T04:34:12.113Z,0.90
2018-11-29T04:36:40.559Z,1.00
2018-11-29T04:39:09.074Z,0.90
2018-11-29T04:41:37.590Z,0.90
2018-11-29T04:44:06.143Z,0.90
2018-11-29T04:46:49.529Z,1.00
2018-11-29T04:49:18.028Z,1.00
2018-11-29T04:51:46.614Z,1.00
2018-11-29T04:54:15.102Z,1.00
2018-11-29T04:56:43.552Z,1.00
2018-11-29T04:59:12.070Z,0.90
2018-11-29T05:01:40.532Z,1.00
2018-11-29T05:04:09.018Z,1.00
2018-11-29T05:06:37.439Z,1.00
2018-11-29T05:09:08.321Z,1.00
2018-11-29T05:11:37.115Z,1.00
2018-11-29T05:14:05.857Z,1.00
2018-11-29T05:16:34.270Z,0.90
2018-11-29T05:19:02.734Z,0.90
2018-11-29T05:21:31.158Z,0.90
2018-11-29T05:23:59.615Z,0.90
2018-11-29T05:26:28.085Z,0.90
2018-11-29T05:28:56.542Z,0.90
2018-11-29T05:31:25.002Z,0.90
2018-11-29T05:33:53.571Z,0.90
2018-11-29T05:36:22.007Z,0.90
2018-11-29T05:38:50.435Z,0.90
2018-11-29T05:41:18.882Z,0.90
2018-11-29T05:43:47.305Z,0.90
2018-11-29T05:46:15.760Z,0.90
2018-11-29T05:48:44.207Z,0.90
2018-11-29T05:51:12.673Z,0.80
2018-11-29T05:53:41.098Z,0.80
2018-11-29T05:56:09.559Z,0.90
2018-11-29T05:58:37.998Z,0.80
2018-11-29T06:01:39.162Z,0.90
2018-11-29T06:04:07.598Z,0.80
2018-11-29T06:06:36.095Z,0.80
2018-11-29T06:09:09.688Z,0.80
2018-11-29T06:11:38.975Z,0.80
2018-11-29T06:14:08.194Z,0.70
2018-11-29T06:16:37.577Z,0.70
2018-11-29T06:19:07.511Z,0.70
2018-11-29T06:21:36.028Z,0.70
2018-11-29T06:24:04.847Z,0.70
2018-11-29T06:26:33.326Z,0.60
2018-11-29T06:29:01.749Z,0.60
2018-11-29T06:31:30.193Z,0.60
2018-11-29T06:33:58.618Z,0.60
2018-11-29T06:36:27.070Z,0.60
2018-11-29T06:38:55.705Z,0.70
2018-11-29T06:41:24.250Z,0.70
2018-11-29T06:43:52.677Z,0.60
2018-11-29T06:46:21.141Z,0.60
2018-11-29T06:48:49.562Z,0.60
2018-11-29T06:51:18.006Z,0.60
2018-11-29T06:53:51.569Z,0.60
2018-11-29T06:56:20.353Z,0.60
2018-11-29T06:58:48.789Z,0.50
2018-11-29T07:01:17.294Z,0.50
2018-11-29T07:03:45.718Z,0.50
2018-11-29T07:06:14.166Z,0.50
2018-11-29T07:08:42.581Z,0.60
2018-11-29T07:11:11.023Z,0.60
2018-11-29T07:13:39.458Z,0.60
2018-11-29T07:16:07.971Z,0.60
2018-11-29T07:18:36.432Z,0.60
2018-11-29T07:21:16.238Z,0.60
2018-11-29T07:23:44.654Z,0.60
2018-11-29T07:26:13.138Z,0.70
2018-11-29T07:28:41.570Z,0.70
2018-11-29T07:31:10.014Z,0.70
2018-11-29T07:33:38.466Z,0.60
2018-11-29T07:36:06.934Z,0.70
2018-11-29T07:38:35.409Z,0.70
2018-11-29T07:41:03.847Z,0.70
2018-11-29T07:43:32.302Z,0.70
2018-11-29T07:46:00.755Z,0.80
2018-11-29T07:48:29.257Z,0.80
2018-11-29T07:50:57.703Z,0.80
2018-11-29T07:53:26.162Z,0.80
2018-11-29T07:55:54.667Z,0.90
2018-11-29T07:58:23.114Z,1.00
2018-11-29T08:00:51.650Z,1.00
2018-11-29T08:03:20.148Z,0.90
2018-11-29T08:05:48.581Z,1.00
2018-11-29T08:08:17.031Z,1.00
2018-11-29T08:10:45.489Z,1.00
2018-11-29T08:13:13.959Z,1.00
2018-11-29T08:15:42.417Z,1.10
2018-11-29T08:18:10.870Z,1.20
2018-11-29T08:20:39.333Z,1.20
2018-11-29T08:23:07.791Z,1.30
2018-11-29T08:25:36.234Z,1.20
2018-11-29T08:28:04.802Z,1.30
2018-11-29T08:30:33.267Z,1.30
2018-11-29T08:33:01.719Z,1.30
2018-11-29T08:35:30.163Z,1.40
2018-11-29T08:37:58.619Z,1.40
2018-11-29T08:40:27.112Z,1.40
2018-11-29T08:42:55.574Z,1.50
2018-11-29T08:45:24.123Z,1.50
2018-11-29T08:47:52.550Z,1.50
2018-11-29T08:50:20.994Z,1.50
2018-11-29T08:52:49.422Z,1.50
2018-11-29T08:55:18.774Z,1.60
2018-11-29T08:57:48.050Z,1.60
2018-11-29T09:00:17.620Z,1.70
2018-11-29T09:02:46.087Z,1.70
2018-11-29T09:05:14.666Z,1.70
2018-11-29T09:07:44.015Z,1.70
2018-11-29T09:10:13.533Z,1.70
2018-11-29T09:12:42.031Z,1.70
2018-11-29T09:15:12.666Z,1.80
2018-11-29T09:17:41.292Z,1.80
2018-11-29T09:20:13.843Z,1.80
2018-11-29T09:22:42.381Z,1.90
2018-11-29T09:25:12.203Z,2.00
2018-11-29T09:27:40.659Z,2.00
2018-11-29T09:30:12.110Z,2.00
2018-11-29T09:32:40.861Z,2.00
2018-11-29T09:35:09.467Z,2.00
2018-11-29T09:37:37.942Z,2.00
2018-11-29T09:40:08.873Z,2.10
2018-11-29T09:42:37.378Z,2.20
2018-11-29T09:45:09.025Z,2.30
2018-11-29T09:47:37.999Z,2.40
2018-11-29T09:50:09.128Z,2.60
2018-11-29T09:52:38.202Z,2.90
2018-11-29T09:55:07.146Z,3.50
2018-11-29T09:57:35.562Z,4.40
2018-11-29T10:00:04.921Z,5.30
2018-11-29T10:02:33.354Z,5.30
2018-11-29T10:05:01.779Z,5.10
2018-11-29T10:07:30.299Z,4.90
2018-11-29T10:09:58.709Z,5.20
2018-11-29T10:12:27.154Z,5.40
2018-11-29T10:14:55.576Z,5.70
2018-11-29T10:17:24.014Z,5.90
2018-11-29T10:19:52.551Z,6.20
2018-11-29T10:22:21.008Z,6.30
2018-11-29T10:24:49.430Z,6.00
2018-11-29T10:27:17.863Z,5.60
2018-11-29T10:29:46.290Z,5.50
2018-11-29T10:32:14.734Z,5.60
2018-11-29T10:34:43.166Z,5.80
2018-11-29T10:37:11.594Z,5.90
2018-11-29T10:39:40.406Z,6.10
2018-11-29T10:42:08.539Z,6.50
2018-11-29T10:44:36.972Z,6.80
2018-11-29T10:47:05.513Z,6.90
2018-11-29T10:49:33.998Z,6.90
2018-11-29T10:52:02.434Z,7.10
2018-11-29T10:54:30.865Z,7.20
2018-11-29T10:57:00.242Z,7.30
2018-11-29T10:59:28.723Z,7.40
2018-11-29T11:02:02.459Z,7.30
2018-11-29T11:04:30.889Z,7.40
2018-11-29T11:06:59.325Z,7.40
2018-11-29T11:09:27.751Z,6.90
2018-11-29T11:11:56.182Z,6.60
2018-11-29T11:14:24.647Z,6.40
2018-11-29T11:16:53.094Z,6.30
2018-11-29T11:19:21.521Z,6.40
2018-11-29T11:21:50.020Z,6.40
2018-11-29T11:24:18.438Z,6.80
2018-11-29T11:26:46.918Z,6.80
2018-11-29T11:29:15.354Z,6.90
2018-11-29T11:31:43.819Z,7.20
2018-11-29T11:34:12.236Z,7.40
2018-11-29T11:36:40.654Z,7.60
2018-11-29T11:39:09.113Z,7.60
2018-11-29T11:41:37.543Z,7.60
2018-11-29T11:44:05.999Z,7.40
2018-11-29T11:46:34.464Z,7.10
2018-11-29T11:49:02.983Z,6.90
2018-11-29T11:51:31.374Z,6.70
2018-11-29T11:53:59.806Z,6.40
2018-11-29T11:56:28.258Z,6.10
2018-11-29T11:58:56.699Z,5.90
2018-11-29T12:01:25.164Z,5.70
2018-11-29T12:03:53.610Z,5.50
2018-11-29T12:06:22.075Z,5.30
2018-11-29T12:08:50.510Z,5.30
2018-11-29T12:11:18.955Z,5.20
2018-11-29T12:13:47.394Z,5.20
2018-11-29T12:16:15.978Z,5.20
2018-11-29T12:18:44.427Z,5.20
2018-11-29T12:21:17.967Z,5.20
2018-11-29T12:23:46.410Z,5.20
2018-11-29T12:26:14.842Z,5.20
2018-11-29T12:28:43.302Z,5.20
2018-11-29T12:31:11.815Z,5.10
2018-11-29T12:33:40.260Z,5.20
2018-11-29T12:36:08.689Z,5.10
2018-11-29T12:38:37.130Z,5.20
2018-11-29T12:41:05.830Z,5.10
2018-11-29T12:43:34.273Z,5.00
2018-11-29T12:46:02.738Z,4.90
2018-11-29T12:48:32.533Z,4.90
2018-11-29T12:51:06.015Z,4.90
2018-11-29T12:53:34.666Z,5.00
2018-11-29T12:56:03.093Z,5.00
2018-11-29T12:58:31.530Z,5.00
2018-11-29T13:00:59.995Z,5.00
2018-11-29T13:03:28.494Z,5.00
2018-11-29T13:05:56.945Z,5.00
2018-11-29T13:08:25.718Z,5.00
2018-11-29T13:10:54.242Z,5.00
2018-11-29T13:13:22.671Z,5.00
2018-11-29T13:15:51.115Z,5.00
2018-11-29T13:18:19.538Z,4.90
2018-11-29T13:20:47.969Z,4.90
2018-11-29T13:23:16.393Z,4.90
2018-11-29T13:25:44.842Z,4.90
2018-11-29T13:28:13.263Z,4.80
2018-11-29T13:30:50.004Z,4.80
2018-11-29T13:33:18.425Z,4.80
2018-11-29T13:35:46.874Z,4.80
2018-11-29T13:38:16.392Z,4.80
2018-11-29T13:40:46.161Z,4.80
2018-11-29T13:43:14.634Z,4.70
2018-11-29T13:45:43.118Z,4.70
2018-11-29T13:48:12.486Z,4.70
2018-11-29T13:50:41.037Z,4.70
2018-11-29T13:53:09.457Z,4.70
2018-11-29T13:55:38.077Z,4.70
2018-11-29T13:58:06.675Z,4.60
2018-11-29T14:00:35.171Z,4.60
2018-11-29T14:03:09.763Z,4.60
2018-11-29T14:05:38.284Z,4.50
2018-11-29T14:08:07.830Z,4.50
2018-11-29T14:10:36.372Z,4.50
2018-11-29T14:13:06.018Z,4.50
2018-11-29T14:15:34.475Z,4.40
2018-11-29T14:18:02.970Z,4.40
2018-11-29T14:20:35.394Z,4.40
2018-11-29T14:22:59.907Z,4.30
2018-11-29T14:25:28.373Z,4.30
2018-11-29T14:27:57.737Z,4.30
2018-11-29T14:30:28.949Z,4.20
2018-11-29T14:32:58.454Z,4.20
2018-11-29T14:35:26.886Z,4.20
2018-11-29T14:37:55.360Z,4.10
2018-11-29T14:40:24.933Z,4.10
2018-11-29T14:42:53.385Z,4.00
2018-11-29T14:45:22.955Z,4.00
2018-11-29T14:47:51.450Z,3.90
2018-11-29T14:50:25.454Z,3.90
2018-11-29T14:52:53.899Z,3.80
2018-11-29T14:55:22.357Z,3.80
2018-11-29T14:57:50.810Z,3.80
2018-11-29T15:00:19.254Z,3.80
2018-11-29T15:02:47.707Z,3.70
2018-11-29T15:05:19.992Z,3.70
2018-11-29T15:07:48.438Z,3.60
2018-11-29T15:10:16.926Z,3.60
2018-11-29T15:12:45.374Z,3.50
2018-11-29T15:15:14.058Z,3.60
2018-11-29T15:17:43.358Z,3.50
2018-11-29T15:20:20.101Z,3.50
2018-11-29T15:22:48.578Z,3.40
2018-11-29T15:25:17.021Z,3.40
2018-11-29T15:27:45.489Z,3.30
2018-11-29T15:30:15.397Z,3.30
2018-11-29T15:32:43.903Z,3.30
2018-11-29T15:35:12.370Z,3.30
2018-11-29T15:37:40.890Z,3.20
2018-11-29T15:40:14.612Z,3.20
2018-11-29T15:42:43.075Z,3.10
2018-11-29T15:45:16.782Z,3.10
2018-11-29T15:47:45.219Z,3.10
2018-11-29T15:50:14.635Z,3.00
2018-11-29T15:52:43.158Z,3.00
2018-11-29T15:55:20.478Z,3.00
2018-11-29T15:57:49.919Z,3.00
2018-11-29T16:00:28.139Z,2.90
2018-11-29T16:02:57.902Z,2.90
2018-11-29T16:05:26.357Z,2.90
2018-11-29T16:07:54.786Z,3.00
2018-11-29T16:10:24.161Z,2.90
2018-11-29T16:12:52.640Z,3.00
2018-11-29T16:15:21.529Z,3.00
2018-11-29T16:17:50.833Z,3.00
2018-11-29T16:20:24.293Z,3.00
2018-11-29T16:22:52.765Z,3.00
2018-11-29T16:25:21.250Z,3.00
2018-11-29T16:27:49.785Z,3.00
2018-11-29T16:30:23.610Z,3.00
2018-11-29T16:32:52.094Z,3.00
2018-11-29T16:35:20.542Z,3.00
2018-11-29T16:37:48.966Z,3.00
2018-11-29T16:40:17.549Z,3.00
2018-11-29T16:42:45.939Z,3.00
2018-11-29T16:45:14.594Z,3.00
2018-11-29T16:47:43.352Z,3.00
2018-11-29T16:50:14.059Z,3.00
2018-11-29T16:52:42.503Z,3.10
2018-11-29T16:55:11.829Z,3.10
2018-11-29T16:57:42.917Z,3.10
2018-11-29T17:00:14.086Z,3.10
2018-11-29T17:02:42.517Z,3.00
2018-11-29T17:05:12.411Z,3.10
2018-11-29T17:07:40.866Z,3.10
2018-11-29T17:10:11.610Z,3.20
2018-11-29T17:12:40.326Z,3.10
2018-11-29T17:15:10.615Z,3.10
2018-11-29T17:17:39.049Z,3.00
2018-11-29T17:20:11.053Z,3.10
2018-11-29T17:22:39.507Z,3.10
2018-11-29T17:25:09.459Z,3.00
2018-11-29T17:27:37.922Z,3.00
2018-11-29T17:30:17.156Z,3.00
2018-11-29T17:32:45.682Z,3.10
2018-11-29T17:35:14.126Z,3.10
2018-11-29T17:37:42.606Z,3.10
2018-11-29T17:40:14.250Z,3.10
2018-11-29T17:42:42.890Z,3.10
2018-11-29T17:45:12.699Z,3.00
2018-11-29T17:47:42.298Z,3.00
2018-11-29T17:50:17.303Z,3.00
2018-11-29T17:52:45.769Z,3.00
2018-11-29T17:55:14.233Z,3.10
2018-11-29T17:57:42.717Z,3.20
2018-11-29T18:00:15.889Z,3.10
2018-11-29T18:02:44.342Z,3.10
2018-11-29T18:05:12.779Z,3.10
2018-11-29T18:07:41.277Z,3.10
2018-11-29T18:10:12.326Z,2.90
2018-11-29T18:12:40.758Z,2.90
2018-11-29T18:15:12.302Z,2.90
2018-11-29T18:17:40.803Z,2.90
2018-11-29T18:20:10.786Z,3.00
2018-11-29T18:22:39.274Z,3.00
2018-11-29T18:25:09.447Z,3.00
2018-11-29T18:27:37.934Z,2.90
2018-11-29T18:30:11.288Z,3.00
2018-11-29T18:32:40.247Z,3.10
2018-11-29T18:35:09.661Z,3.10
2018-11-29T18:37:38.137Z,3.10
2018-11-29T18:40:11.249Z,3.00
2018-11-29T18:42:39.681Z,3.00
2018-11-29T18:45:11.189Z,3.00
2018-11-29T18:47:40.134Z,3.00
2018-11-29T18:50:15.815Z,3.00
2018-11-29T18:52:44.346Z,3.00
2018-11-29T18:55:12.877Z,2.90
2018-11-29T18:57:41.298Z,2.90
2018-11-29T19:00:12.937Z,2.80
2018-11-29T19:02:41.377Z,2.80
2018-11-29T19:05:10.010Z,2.80
2018-11-29T19:07:38.440Z,2.70
2018-11-29T19:10:09.926Z,2.70
2018-11-29T19:12:38.930Z,2.70
2018-11-29T19:15:09.743Z,2.70
2018-11-29T19:17:38.399Z,2.70
2018-11-29T19:20:09.058Z,2.70
2018-11-29T19:22:37.474Z,2.70
2018-11-29T19:25:09.019Z,2.70
2018-11-29T19:27:37.455Z,2.70
2018-11-29T19:30:10.126Z,2.70
2018-11-29T19:32:38.543Z,2.60
2018-11-29T19:35:07.851Z,2.60
2018-11-29T19:37:36.271Z,2.60
2018-11-29T19:40:07.899Z,2.60
2018-11-29T19:42:36.311Z,2.60
2018-11-29T19:45:05.366Z,2.60
2018-11-29T19:47:33.803Z,2.50
2018-11-29T19:50:02.268Z,2.50
2018-11-29T19:52:30.719Z,2.40
2018-11-29T19:54:59.187Z,2.30
2018-11-29T19:57:27.618Z,2.20
2018-11-29T19:59:56.062Z,2.10
2018-11-29T20:02:24.505Z,2.10
2018-11-29T20:04:52.922Z,2.00
2018-11-29T20:07:21.374Z,2.00
2018-11-29T20:09:49.793Z,1.90
2018-11-29T20:12:18.271Z,1.90
2018-11-29T20:14:46.702Z,1.90
2018-11-29T20:17:15.170Z,1.80
2018-11-29T20:19:43.587Z,1.80
2018-11-29T20:22:12.051Z,1.70
2018-11-29T20:24:40.480Z,1.70
2018-11-29T20:27:08.933Z,1.70
2018-11-29T20:29:37.366Z,1.70
2018-11-29T20:32:06.006Z,1.60
2018-11-29T20:34:34.417Z,1.60
2018-11-29T20:37:02.869Z,1.60
2018-11-29T20:39:31.293Z,1.70
2018-11-29T20:41:59.742Z,1.60
2018-11-29T20:44:28.174Z,1.40
2018-11-29T20:46:56.716Z,1.30
2018-11-29T20:49:25.130Z,1.20
2018-11-29T20:51:53.587Z,1.20
2018-11-29T20:54:22.070Z,1.10
2018-11-29T20:56:50.588Z,1.10
2018-11-29T20:59:19.014Z,1.00
2018-11-29T21:01:47.458Z,1.00
2018-11-29T21:04:15.893Z,1.00
2018-11-29T21:06:44.366Z,0.90
2018-11-29T21:09:13.592Z,1.00
2018-11-29T21:11:42.041Z,0.90
2018-11-29T21:14:10.450Z,0.90
2018-11-29T21:16:38.934Z,0.80
2018-11-29T21:19:07.364Z,0.70
2018-11-29T21:21:35.809Z,0.70
2018-11-29T21:24:04.431Z,0.60
2018-11-29T21:26:32.890Z,0.60
2018-11-29T21:29:01.322Z,0.60
2018-11-29T21:31:29.766Z,0.50
2018-11-29T21:33:58.174Z,0.50
2018-11-29T21:36:26.655Z,0.50
2018-11-29T21:38:55.094Z,0.50
2018-11-29T21:41:23.515Z,0.50
2018-11-29T21:43:52.018Z,0.50
2018-11-29T21:46:20.449Z,0.40
2018-11-29T21:48:48.999Z,0.30
2018-11-29T21:51:17.423Z,0.40
2018-11-29T21:53:45.998Z,0.30
2018-11-29T21:56:14.418Z,0.30
2018-11-29T21:58:42.870Z,0.20
2018-11-29T22:01:11.286Z,0.20
2018-11-29T22:03:39.743Z,0.20
2018-11-29T22:06:08.169Z,0.20
2018-11-29T22:08:36.664Z,0.20
2018-11-29T22:11:05.266Z,0.20
2018-11-29T22:13:33.758Z,0.20
2018-11-29T22:16:02.177Z,0.10
2018-11-29T22:18:30.692Z,0.10
2018-11-29T22:21:01.428Z,0.10
2018-11-29T22:23:30.358Z,0.10
2018-11-29T22:25:59.957Z,0.00
2018-11-29T22:28:28.837Z,0.00
2018-11-29T22:30:57.469Z,0.00
2018-11-29T22:33:25.887Z,0.00
2018-11-29T22:35:54.322Z,-0.10
2018-11-29T22:38:22.814Z,-0.10
2018-11-29T22:40:51.265Z,-0.10
2018-11-29T22:43:19.683Z,-0.10
2018-11-29T22:45:48.190Z,-0.10
2018-11-29T22:48:16.605Z,-0.10
2018-11-29T22:50:45.044Z,-0.20
2018-11-29T22:53:13.477Z,-0.20
2018-11-29T22:55:42.027Z,-0.20
2018-11-29T22:58:10.462Z,-0.20
2018-11-29T23:00:44.298Z,-0.30
2018-11-29T23:03:13.126Z,-0.30
2018-11-29T23:05:41.657Z,-0.30
2018-11-29T23:08:10.126Z,-0.30
2018-11-29T23:10:38.586Z,-0.20
2018-11-29T23:13:07.414Z,-0.20
2018-11-29T23:15:35.953Z,-0.20
2018-11-29T23:18:04.430Z,-0.20
2018-11-29T23:20:32.910Z,-0.20
2018-11-29T23:23:01.394Z,-0.20
2018-11-29T23:25:29.842Z,-0.20
2018-11-29T23:27:58.298Z,-0.30
2018-11-29T23:30:26.854Z,-0.30
2018-11-29T23:32:55.306Z,-0.30
2018-11-29T23:35:23.738Z,-0.30
2018-11-29T23:37:52.202Z,-0.30
2018-11-29T23:40:20.650Z,-0.30
2018-11-29T23:42:49.115Z,-0.40
2018-11-29T23:45:17.566Z,-0.40
2018-11-29T23:47:46.019Z,-0.30
2018-11-29T23:50:15.725Z,-0.30
2018-11-29T23:52:44.297Z,-0.30
2018-11-29T23:55:21.286Z,-0.30
2018-11-29T23:57:49.758Z,-0.40
